Time;durP1;ratioP1;P1;durP2;ratioP2;P2;SDS_P1;SDS_P2;PMS_P1;PMS_P2;Temp;Humidity;BMP_temperature;BMP_pressure;BME280_temperature;BME280_humidity;BME280_pressure;Samples;Min_cycle;Max_cycle;Signal;HPM_P1;HPM_P2
2022/10/16 00:01:06;;;;;;;;;;;9.60;99.90;;;;;;5033199;28;20428;-54
2022/10/16 00:03:34;;;;;;;;;;;9.60;99.90;;;;;;4999821;28;19961;-55
2022/10/16 00:06:02;;;;;;;;;;;9.60;99.90;;;;;;4963764;28;19930;-55
2022/10/16 00:08:29;;;;;;;;;;;9.60;99.90;;;;;;4990590;28;19937;-54
2022/10/16 00:11:01;;;;;;;;;;;9.60;99.90;;;;;;4963149;28;19937;-54
2022/10/16 00:13:30;;;;;;;;;;;9.50;99.90;;;;;;4998643;28;19931;-54
2022/10/16 00:15:59;;;;;;;;;;;9.50;99.90;;;;;;5051468;28;19945;-54
2022/10/16 00:18:27;;;;;;;;;;;9.50;99.90;;;;;;5016822;28;19928;-55
2022/10/16 00:20:54;;;;;;;;;;;9.50;99.90;;;;;;4989699;28;19937;-55
2022/10/16 00:23:45;;;;;;;;;;;9.50;99.90;;;;;;5031803;28;19937;-55
2022/10/16 00:26:15;;;;;;;;;;;9.50;99.90;;;;;;4974352;28;19941;-55
2022/10/16 00:28:46;;;;;;;;;;;9.50;99.90;;;;;;4979795;28;20077;-55
2022/10/16 00:31:14;;;;;;;;;;;9.50;99.90;;;;;;4967081;28;19931;-55
2022/10/16 00:33:42;;;;;;;;;;;9.50;99.90;;;;;;5003988;28;19934;-55
2022/10/16 00:36:11;;;;;;;;;;;9.50;99.90;;;;;;4970775;28;20289;-55
2022/10/16 00:38:39;;;;;;;;;;;9.50;99.90;;;;;;4999514;28;20275;-55
2022/10/16 00:41:07;;;;;;;;;;;9.40;99.90;;;;;;5017078;28;19934;-55
2022/10/16 00:43:35;;;;;;;;;;;9.40;99.90;;;;;;4991736;28;19931;-55
2022/10/16 00:46:03;;;;;;;;;;;9.40;99.90;;;;;;5038661;28;19926;-55
2022/10/16 00:48:31;;;;;;;;;;;9.40;99.90;;;;;;5045279;28;20378;-55
2022/10/16 00:50:58;;;;;;;;;;;9.50;99.90;;;;;;5016284;28;20442;-54
2022/10/16 00:53:27;;;;;;;;;;;9.70;99.90;;;;;;5020904;28;19926;-55
2022/10/16 00:55:54;;;;;;;;;;;9.80;99.90;;;;;;4948303;28;19926;-55
2022/10/16 00:58:22;;;;;;;;;;;10.00;99.90;;;;;;4981214;28;20254;-55
2022/10/16 01:00:49;;;;;;;;;;;10.10;99.90;;;;;;5030122;28;19934;-55
2022/10/16 01:03:33;;;;;;;;;;;10.20;99.90;;;;;;5011387;28;19951;-56
2022/10/16 01:06:20;;;;;;;;;;;10.20;99.90;;;;;;4945256;28;19937;-56
2022/10/16 01:08:52;;;;;;;;;;;10.40;99.90;;;;;;4980737;28;19934;-55
2022/10/16 01:11:23;;;;;;;;;;;10.40;99.90;;;;;;4972756;28;19929;-55
2022/10/16 01:13:54;;;;;;;;;;;10.50;99.90;;;;;;5025963;28;19930;-55
2022/10/16 01:16:27;;;;;;;;;;;10.50;99.90;;;;;;4971993;28;19926;-57
2022/10/16 01:18:59;;;;;;;;;;;10.60;99.90;;;;;;5031750;28;19957;-55
2022/10/16 01:21:29;;;;;;;;;;;10.60;99.90;;;;;;4963326;28;19926;-55
2022/10/16 01:24:06;;;;;;;;;;;10.60;99.90;;;;;;5000169;28;19934;-56
2022/10/16 01:26:37;;;;;;;;;;;10.60;99.90;;;;;;4980266;28;19926;-55
2022/10/16 01:29:14;;;;;;;;;;;10.60;99.90;;;;;;5015664;28;19933;-55
2022/10/16 01:31:44;;;;;;;;;;;10.50;99.90;;;;;;4961043;28;19926;-55
2022/10/16 01:34:16;;;;;;;;;;;10.50;99.90;;;;;;5006063;28;19933;-55
2022/10/16 01:36:46;;;;;;;;;;;10.40;99.90;;;;;;4952962;28;19927;-55
2022/10/16 01:39:14;;;;;;;;;;;10.40;99.90;;;;;;5020824;28;20366;-55
2022/10/16 01:41:44;;;;;;;;;;;10.30;99.90;;;;;;4956707;28;19926;-55
2022/10/16 01:44:41;;;;;;;;;;;10.30;99.90;;;;;;4970256;28;19926;-55
2022/10/16 01:47:10;;;;;;;;;;;10.30;99.90;;;;;;4974186;28;19930;-55
2022/10/16 01:49:39;;;;;;;;;;;10.10;99.90;;;;;;4980800;28;20308;-54
2022/10/16 01:52:09;;;;;;;;;;;10.10;99.90;;;;;;4971336;28;19926;-55
2022/10/16 01:54:37;;;;;;;;;;;10.10;99.90;;;;;;5056371;28;20377;-54
2022/10/16 01:57:07;;;;;;;;;;;10.00;99.90;;;;;;4979797;28;19926;-55
2022/10/16 01:59:43;;;;;;;;;;;10.00;99.90;;;;;;4970258;28;20001;-54
2022/10/16 02:02:12;;;;;;;;;;;10.00;99.90;;;;;;5038138;28;19926;-55
2022/10/16 02:04:49;;;;;;;;;;;9.90;99.90;;;;;;4997180;28;19926;-55
2022/10/16 02:07:16;;;;;;;;;;;9.90;99.90;;;;;;4980303;28;19926;-55
2022/10/16 02:09:44;;;;;;;;;;;9.90;99.90;;;;;;4976841;28;20404;-55
2022/10/16 02:12:15;;;;;;;;;;;9.80;99.90;;;;;;4980170;28;19926;-55
2022/10/16 02:14:42;;;;;;;;;;;9.80;99.90;;;;;;4979504;28;19933;-54
2022/10/16 02:17:11;;;;;;;;;;;9.70;99.90;;;;;;4970094;28;19926;-54
2022/10/16 02:19:39;;;;;;;;;;;9.70;99.90;;;;;;4963606;28;20413;-54
2022/10/16 02:22:08;;;;;;;;;;;9.70;99.90;;;;;;4960468;28;20416;-54
2022/10/16 02:24:35;;;;;;;;;;;9.60;99.90;;;;;;4972769;28;19934;-55
2022/10/16 02:27:09;;;;;;;;;;;9.60;99.90;;;;;;4972566;28;19926;-54
2022/10/16 02:29:44;;;;;;;;;;;9.60;99.90;;;;;;4970659;28;19934;-54
2022/10/16 02:32:15;;;;;;;;;;;9.50;99.90;;;;;;4960728;28;19926;-55
2022/10/16 02:34:43;;;;;;;;;;;9.50;99.90;;;;;;5054235;28;19925;-55
2022/10/16 02:37:11;;;;;;;;;;;9.50;99.90;;;;;;4998753;28;19925;-54
2022/10/16 02:39:39;;;;;;;;;;;9.50;99.90;;;;;;4982215;28;19926;-54
2022/10/16 02:42:14;;;;;;;;;;;9.50;99.90;;;;;;4972724;28;20293;-55
2022/10/16 02:44:41;;;;;;;;;;;9.40;99.90;;;;;;4992034;28;19933;-54
2022/10/16 02:47:09;;;;;;;;;;;9.40;99.90;;;;;;4992056;28;19994;-55
2022/10/16 02:49:41;;;;;;;;;;;9.30;99.90;;;;;;4992090;28;19926;-55
2022/10/16 02:52:08;;;;;;;;;;;9.30;99.90;;;;;;5058771;28;19930;-55
2022/10/16 02:54:36;;;;;;;;;;;9.30;99.90;;;;;;4978183;28;19926;-54
2022/10/16 02:57:03;;;;;;;;;;;9.30;99.90;;;;;;5058088;28;19925;-55
2022/10/16 02:59:30;;;;;;;;;;;9.30;99.90;;;;;;4991946;28;19933;-55
2022/10/16 03:01:58;;;;;;;;;;;9.20;99.90;;;;;;5059145;28;19949;-55
2022/10/16 03:04:25;;;;;;;;;;;9.10;99.90;;;;;;5052674;28;19931;-55
2022/10/16 03:06:52;;;;;;;;;;;9.10;99.90;;;;;;5012302;28;19926;-55
2022/10/16 03:09:20;;;;;;;;;;;9.10;99.90;;;;;;4952956;29;19937;-55
2022/10/16 03:11:47;;;;;;;;;;;9.10;99.90;;;;;;5018746;28;19949;-55
2022/10/16 03:14:15;;;;;;;;;;;9.00;99.90;;;;;;5019502;28;19926;-55
2022/10/16 03:16:42;;;;;;;;;;;9.00;99.90;;;;;;4952890;29;19927;-55
2022/10/16 03:19:10;;;;;;;;;;;8.90;99.90;;;;;;4953026;29;19927;-55
2022/10/16 03:21:37;;;;;;;;;;;8.90;99.90;;;;;;4967987;28;19934;-55
2022/10/16 03:24:05;;;;;;;;;;;8.90;99.90;;;;;;4952852;28;19927;-55
2022/10/16 03:26:32;;;;;;;;;;;8.80;99.90;;;;;;4952670;28;19933;-55
2022/10/16 03:29:00;;;;;;;;;;;8.80;99.90;;;;;;4952892;29;19937;-55
2022/10/16 03:31:27;;;;;;;;;;;8.70;99.90;;;;;;5018679;28;19926;-55
2022/10/16 03:33:54;;;;;;;;;;;8.70;99.90;;;;;;5017185;28;19947;-55
2022/10/16 03:36:22;;;;;;;;;;;8.70;99.90;;;;;;5073834;28;19928;-55
2022/10/16 03:38:49;;;;;;;;;;;8.60;99.90;;;;;;5073435;28;20403;-55
2022/10/16 03:41:16;;;;;;;;;;;8.60;99.90;;;;;;5073628;28;19932;-55
2022/10/16 03:43:44;;;;;;;;;;;8.50;99.90;;;;;;5089444;28;20383;-55
2022/10/16 03:46:11;;;;;;;;;;;8.50;99.90;;;;;;5073422;28;20394;-55
2022/10/16 03:48:39;;;;;;;;;;;8.50;99.90;;;;;;5055718;28;19931;-55
2022/10/16 03:51:07;;;;;;;;;;;8.40;99.90;;;;;;5089133;28;19924;-55
2022/10/16 03:53:34;;;;;;;;;;;8.40;99.90;;;;;;5073246;28;19924;-55
2022/10/16 03:56:01;;;;;;;;;;;8.40;99.90;;;;;;5088807;28;19924;-55
2022/10/16 03:58:29;;;;;;;;;;;8.40;99.90;;;;;;5088877;28;19924;-55
2022/10/16 04:00:56;;;;;;;;;;;8.40;99.90;;;;;;5073300;28;19932;-55
2022/10/16 04:03:24;;;;;;;;;;;8.30;99.90;;;;;;5073234;28;19925;-55
2022/10/16 04:05:51;;;;;;;;;;;8.30;99.90;;;;;;5073080;28;19936;-55
2022/10/16 04:08:18;;;;;;;;;;;8.30;99.90;;;;;;5072902;28;19924;-55
2022/10/16 04:10:46;;;;;;;;;;;8.30;99.90;;;;;;5073261;28;19932;-55
2022/10/16 04:13:14;;;;;;;;;;;8.20;99.90;;;;;;5073002;28;19931;-55
2022/10/16 04:15:41;;;;;;;;;;;8.30;99.90;;;;;;5072824;28;20477;-55
2022/10/16 04:18:09;;;;;;;;;;;8.20;99.90;;;;;;5073218;28;19928;-55
2022/10/16 04:20:36;;;;;;;;;;;8.20;99.90;;;;;;5072745;28;19943;-55
2022/10/16 04:23:04;;;;;;;;;;;8.20;99.90;;;;;;5072218;28;19924;-55
2022/10/16 04:25:31;;;;;;;;;;;8.10;99.90;;;;;;5072810;28;19924;-55
2022/10/16 04:27:58;;;;;;;;;;;8.10;99.90;;;;;;5072016;28;20414;-56
2022/10/16 04:30:26;;;;;;;;;;;8.00;99.90;;;;;;5072518;28;19925;-56
2022/10/16 04:32:53;;;;;;;;;;;8.00;99.90;;;;;;5072770;28;19931;-56
2022/10/16 04:35:21;;;;;;;;;;;8.00;99.90;;;;;;5072468;28;20003;-56
2022/10/16 04:37:48;;;;;;;;;;;8.00;99.90;;;;;;5036789;28;19927;-56
2022/10/16 04:40:16;;;;;;;;;;;7.90;99.90;;;;;;4971052;28;20551;-55
2022/10/16 04:42:43;;;;;;;;;;;7.90;99.90;;;;;;4971059;28;19926;-55
2022/10/16 04:45:11;;;;;;;;;;;7.90;99.90;;;;;;4985701;28;19949;-55
2022/10/16 04:47:43;;;;;;;;;;;7.80;99.90;;;;;;4963688;28;19930;-55
2022/10/16 04:50:10;;;;;;;;;;;7.70;99.90;;;;;;4948381;29;19927;-55
2022/10/16 04:52:38;;;;;;;;;;;7.70;99.90;;;;;;4948366;28;19926;-55
2022/10/16 04:55:06;;;;;;;;;;;7.70;99.90;;;;;;4948383;29;19934;-55
2022/10/16 04:57:33;;;;;;;;;;;7.70;99.90;;;;;;4980799;28;19931;-55
2022/10/16 05:00:00;;;;;;;;;;;7.70;99.90;;;;;;5068866;28;19932;-55
2022/10/16 05:02:28;;;;;;;;;;;7.70;99.90;;;;;;5007302;28;19926;-56
2022/10/16 05:04:56;;;;;;;;;;;7.70;99.90;;;;;;5046311;28;19936;-55
2022/10/16 05:07:23;;;;;;;;;;;7.70;99.90;;;;;;5063550;28;19933;-56
2022/10/16 05:09:51;;;;;;;;;;;7.70;99.90;;;;;;5057342;28;19939;-55
2022/10/16 05:12:19;;;;;;;;;;;7.70;99.90;;;;;;4969160;28;19925;-55
2022/10/16 05:14:46;;;;;;;;;;;7.70;99.90;;;;;;5050669;28;19924;-55
2022/10/16 05:17:14;;;;;;;;;;;7.70;99.90;;;;;;5065352;28;20379;-55
2022/10/16 05:19:41;;;;;;;;;;;7.70;99.90;;;;;;5065193;28;20406;-55
2022/10/16 05:22:09;;;;;;;;;;;7.80;99.90;;;;;;5053177;28;20318;-55
2022/10/16 05:24:36;;;;;;;;;;;7.70;99.90;;;;;;4963702;28;19941;-55
2022/10/16 05:27:03;;;;;;;;;;;7.70;99.90;;;;;;5013179;28;20408;-55
2022/10/16 05:29:31;;;;;;;;;;;7.70;99.90;;;;;;4947803;29;19938;-55
2022/10/16 05:31:59;;;;;;;;;;;7.70;99.90;;;;;;4952784;28;19926;-56
2022/10/16 05:34:26;;;;;;;;;;;7.70;99.90;;;;;;5068323;28;20497;-56
2022/10/16 05:36:54;;;;;;;;;;;7.60;99.90;;;;;;5072414;28;19924;-55
2022/10/16 05:39:21;;;;;;;;;;;7.60;99.90;;;;;;5068925;28;20702;-55
2022/10/16 05:41:49;;;;;;;;;;;7.60;99.90;;;;;;5019663;28;19931;-56
2022/10/16 05:44:16;;;;;;;;;;;7.60;99.90;;;;;;5069813;28;19928;-56
2022/10/16 05:46:46;;;;;;;;;;;7.70;99.90;;;;;;5072273;28;19924;-55
2022/10/16 05:49:13;;;;;;;;;;;7.60;99.90;;;;;;5071913;28;19925;-55
2022/10/16 05:51:41;;;;;;;;;;;7.60;99.90;;;;;;5071331;28;19933;-56
2022/10/16 05:54:08;;;;;;;;;;;7.60;99.90;;;;;;5068620;28;19924;-55
2022/10/16 05:56:36;;;;;;;;;;;7.60;99.90;;;;;;4993027;28;19942;-55
2022/10/16 05:59:04;;;;;;;;;;;7.60;99.90;;;;;;5049057;28;19925;-55
2022/10/16 06:01:31;;;;;;;;;;;7.60;99.90;;;;;;5069998;28;20418;-56
2022/10/16 06:03:59;;;;;;;;;;;7.60;99.90;;;;;;5041757;28;19937;-56
2022/10/16 06:06:27;;;;;;;;;;;7.60;99.90;;;;;;4985035;28;20301;-55
2022/10/16 06:08:55;;;;;;;;;;;7.60;99.90;;;;;;5050771;28;19924;-56
2022/10/16 06:11:24;;;;;;;;;;;7.60;99.90;;;;;;5042215;28;19937;-56
2022/10/16 06:13:52;;;;;;;;;;;7.60;99.90;;;;;;5039165;28;19925;-56
2022/10/16 06:16:20;;;;;;;;;;;7.50;99.90;;;;;;4989117;28;19933;-56
2022/10/16 06:18:48;;;;;;;;;;;7.50;99.90;;;;;;5045594;28;19924;-55
2022/10/16 06:21:20;;;;;;;;;;;7.50;99.90;;;;;;4987678;28;20404;-56
2022/10/16 06:23:48;;;;;;;;;;;7.50;99.90;;;;;;5011476;28;19937;-56
2022/10/16 06:26:17;;;;;;;;;;;7.40;99.90;;;;;;4959713;28;19930;-56
2022/10/16 06:28:45;;;;;;;;;;;7.40;99.90;;;;;;5050853;28;20379;-56
2022/10/16 06:31:13;;;;;;;;;;;7.30;99.90;;;;;;5027152;28;19926;-56
2022/10/16 06:33:40;;;;;;;;;;;7.30;99.90;;;;;;5048330;28;20318;-55
2022/10/16 06:36:12;;;;;;;;;;;7.20;99.90;;;;;;5039998;28;19936;-56
2022/10/16 06:38:40;;;;;;;;;;;7.20;99.90;;;;;;4983556;28;19933;-55
2022/10/16 06:41:09;;;;;;;;;;;7.10;99.90;;;;;;5030623;28;19927;-56
2022/10/16 06:43:36;;;;;;;;;;;7.10;99.90;;;;;;4990247;28;19926;-56
2022/10/16 06:46:07;;;;;;;;;;;7.00;99.90;;;;;;4970997;28;19930;-55
2022/10/16 06:48:35;;;;;;;;;;;7.00;99.90;;;;;;5044311;28;19932;-56
2022/10/16 06:51:03;;;;;;;;;;;6.90;99.90;;;;;;5055328;28;19929;-55
2022/10/16 06:53:36;;;;;;;;;;;6.90;99.90;;;;;;5045213;28;19932;-56
2022/10/16 06:56:22;;;;;;;;;;;6.90;99.90;;;;;;5025683;28;20381;-56
2022/10/16 06:58:50;;;;;;;;;;;6.90;99.90;;;;;;5030860;28;19937;-56
2022/10/16 07:01:21;;;;;;;;;;;6.80;99.90;;;;;;4987519;28;19926;-56
2022/10/16 07:03:49;;;;;;;;;;;6.90;99.90;;;;;;5037537;28;19924;-56
2022/10/16 07:06:17;;;;;;;;;;;6.90;99.90;;;;;;4966016;28;19933;-56
2022/10/16 07:08:46;;;;;;;;;;;6.90;99.90;;;;;;5052839;28;19935;-56
2022/10/16 07:11:14;;;;;;;;;;;6.90;99.90;;;;;;5002623;28;19926;-56
2022/10/16 07:13:43;;;;;;;;;;;6.90;99.90;;;;;;5029949;28;19924;-56
2022/10/16 07:16:12;;;;;;;;;;;7.00;99.90;;;;;;4988581;28;19939;-56
2022/10/16 07:18:41;;;;;;;;;;;7.00;99.90;;;;;;5005100;28;20281;-55
2022/10/16 07:21:11;;;;;;;;;;;7.10;99.90;;;;;;4973993;28;20404;-56
2022/10/16 07:23:38;;;;;;;;;;;7.10;99.90;;;;;;5032443;28;19933;-56
2022/10/16 07:26:06;;;;;;;;;;;7.10;99.90;;;;;;4965744;28;20405;-57
2022/10/16 07:28:34;;;;;;;;;;;7.20;99.90;;;;;;5024796;28;19924;-56
2022/10/16 07:31:02;;;;;;;;;;;7.20;99.90;;;;;;5052969;28;19928;-56
2022/10/16 07:33:30;;;;;;;;;;;7.20;99.90;;;;;;5074836;28;19931;-56
2022/10/16 07:35:57;;;;;;;;;;;7.20;99.90;;;;;;4978774;28;19938;-56
2022/10/16 07:38:25;;;;;;;;;;;7.30;99.90;;;;;;5030253;28;20290;-56
2022/10/16 07:41:03;;;;;;;;;;;7.30;99.90;;;;;;5030367;28;19927;-56
2022/10/16 07:43:31;;;;;;;;;;;7.30;99.90;;;;;;5026673;28;19924;-55
2022/10/16 07:45:58;;;;;;;;;;;7.40;99.90;;;;;;5036875;28;19929;-55
2022/10/16 07:48:33;;;;;;;;;;;7.40;99.90;;;;;;5034294;28;20118;-56
2022/10/16 07:51:01;;;;;;;;;;;7.50;99.90;;;;;;5055305;28;19934;-56
2022/10/16 07:53:29;;;;;;;;;;;7.50;99.90;;;;;;5039238;28;19928;-55
2022/10/16 07:56:06;;;;;;;;;;;7.50;99.90;;;;;;5033726;28;20339;-55
2022/10/16 07:58:36;;;;;;;;;;;7.60;99.90;;;;;;5025531;28;19971;-55
2022/10/16 08:01:05;;;;;;;;;;;7.60;99.90;;;;;;5045382;28;19926;-55
2022/10/16 08:03:33;;;;;;;;;;;7.70;99.90;;;;;;5031260;28;19945;-56
2022/10/16 08:06:01;;;;;;;;;;;7.70;99.90;;;;;;4985227;28;19930;-55
2022/10/16 08:08:29;;;;;;;;;;;7.80;99.90;;;;;;5037067;28;19934;-55
2022/10/16 08:10:56;;;;;;;;;;;7.90;99.90;;;;;;4980551;28;19936;-56
2022/10/16 08:13:24;;;;;;;;;;;7.90;99.90;;;;;;5019799;28;20260;-55
2022/10/16 08:15:53;;;;;;;;;;;8.00;99.90;;;;;;5069544;28;20491;-55
2022/10/16 08:18:20;;;;;;;;;;;8.10;99.90;;;;;;4985195;28;19933;-55
2022/10/16 08:20:48;;;;;;;;;;;8.20;99.90;;;;;;4987260;28;19933;-55
2022/10/16 08:23:15;;;;;;;;;;;8.20;99.90;;;;;;5030147;28;19935;-55
2022/10/16 08:25:43;;;;;;;;;;;8.30;99.90;;;;;;5085030;28;19924;-55
2022/10/16 08:28:11;;;;;;;;;;;8.40;99.90;;;;;;5011639;28;19928;-55
2022/10/16 08:30:38;;;;;;;;;;;8.40;99.90;;;;;;5051604;28;19924;-54
2022/10/16 08:33:06;;;;;;;;;;;8.50;99.90;;;;;;5021500;28;19924;-54
2022/10/16 08:35:33;;;;;;;;;;;8.60;99.90;;;;;;5083669;28;19932;-55
2022/10/16 08:38:03;;;;;;;;;;;8.60;99.90;;;;;;5069091;28;19928;-55
2022/10/16 08:40:32;;;;;;;;;;;8.70;99.90;;;;;;5068934;28;20303;-55
2022/10/16 08:42:59;;;;;;;;;;;8.70;99.90;;;;;;5029023;28;19925;-57
2022/10/16 08:45:26;;;;;;;;;;;8.90;99.90;;;;;;5025744;28;20254;-55
2022/10/16 08:48:00;;;;;;;;;;;8.90;99.90;;;;;;4977120;28;20400;-56
2022/10/16 08:50:30;;;;;;;;;;;9.00;99.90;;;;;;5030874;28;21525;-55
2022/10/16 08:52:57;;;;;;;;;;;9.10;99.90;;;;;;5007903;28;19924;-55
2022/10/16 08:55:34;;;;;;;;;;;9.20;99.90;;;;;;4974321;28;19930;-55
2022/10/16 08:58:09;;;;;;;;;;;9.20;99.90;;;;;;4975419;28;19933;-55
2022/10/16 09:00:37;;;;;;;;;;;10.00;99.90;;;;;;4975293;28;19926;-55
2022/10/16 09:03:18;;;;;;;;;;;9.30;99.90;;;;;;4996286;28;19936;-55
2022/10/16 09:06:00;;;;;;;;;;;9.40;99.90;;;;;;5065742;28;19943;-55
2022/10/16 09:08:37;;;;;;;;;;;9.50;99.90;;;;;;5063257;28;19924;-55
2022/10/16 09:11:10;;;;;;;;;;;9.60;99.90;;;;;;4968443;28;20396;-55
2022/10/16 09:13:37;;;;;;;;;;;9.60;99.90;;;;;;5028537;28;19932;-55
2022/10/16 09:16:07;;;;;;;;;;;9.80;99.90;;;;;;5067849;28;20364;-55
2022/10/16 09:18:43;;;;;;;;;;;9.80;99.90;;;;;;5009364;28;19930;-55
2022/10/16 09:21:17;;;;;;;;;;;9.80;99.90;;;;;;4988188;28;20511;-55
2022/10/16 09:23:44;;;;;;;;;;;9.90;99.90;;;;;;5044270;28;20286;-55
2022/10/16 09:26:13;;;;;;;;;;;10.00;99.90;;;;;;5002252;28;19953;-56
2022/10/16 09:28:41;;;;;;;;;;;10.00;99.90;;;;;;4993396;28;19926;-55
2022/10/16 09:31:19;;;;;;;;;;;10.00;99.90;;;;;;5031986;28;19933;-56
2022/10/16 09:33:55;;;;;;;;;;;10.10;99.90;;;;;;5006598;28;19936;-55
2022/10/16 09:36:23;;;;;;;;;;;10.20;99.90;;;;;;5027289;28;19941;-56
2022/10/16 09:39:00;;;;;;;;;;;10.20;99.90;;;;;;4976652;28;20407;-56
2022/10/16 09:41:28;;;;;;;;;;;10.30;99.90;;;;;;4966922;28;19933;-56
2022/10/16 09:43:57;;;;;;;;;;;10.40;99.90;;;;;;4965053;28;19934;-56
2022/10/16 09:46:29;;;;;;;;;;;10.50;99.90;;;;;;5026088;28;19937;-56
2022/10/16 09:48:58;;;;;;;;;;;10.60;99.90;;;;;;4978406;28;20499;-56
2022/10/16 09:51:33;;;;;;;;;;;10.80;99.90;;;;;;4961756;28;19933;-56
2022/10/16 09:54:06;;;;;;;;;;;10.80;99.90;;;;;;4968057;28;19949;-56
2022/10/16 09:56:36;;;;;;;;;;;11.00;99.90;;;;;;4966653;28;19930;-56
2022/10/16 09:59:08;;;;;;;;;;;11.10;99.90;;;;;;4972287;28;19930;-56
2022/10/16 10:01:38;;;;;;;;;;;11.10;99.90;;;;;;5041750;28;19972;-56
2022/10/16 10:04:06;;;;;;;;;;;11.20;99.90;;;;;;4956250;28;20401;-55
2022/10/16 10:06:37;;;;;;;;;;;11.30;99.90;;;;;;4947729;28;19937;-56
2022/10/16 10:09:19;;;;;;;;;;;11.30;99.90;;;;;;5026180;28;19938;-56
2022/10/16 10:11:50;;;;;;;;;;;11.40;99.90;;;;;;4961932;28;19926;-56
2022/10/16 10:14:22;;;;;;;;;;;11.50;99.90;;;;;;4985211;28;19934;-56
2022/10/16 10:16:51;;;;;;;;;;;11.60;99.90;;;;;;4965308;28;19926;-56
2022/10/16 10:19:20;;;;;;;;;;;11.70;99.90;;;;;;4974693;28;19930;-56
2022/10/16 10:21:48;;;;;;;;;;;11.80;99.90;;;;;;5021402;28;19950;-57
2022/10/16 10:24:17;;;;;;;;;;;11.90;99.90;;;;;;5028400;28;19933;-56
2022/10/16 10:27:10;;;;;;;;;;;12.00;99.90;;;;;;4974824;28;20586;-55
2022/10/16 10:29:56;;;;;;;;;;;12.10;99.90;;;;;;4960153;28;19927;-57
2022/10/16 10:32:31;;;;;;;;;;;12.20;99.90;;;;;;4964118;28;19941;-56
2022/10/16 10:34:59;;;;;;;;;;;12.20;99.90;;;;;;5021720;28;19933;-56
2022/10/16 10:37:38;;;;;;;;;;;12.30;99.90;;;;;;4953112;28;19934;-56
2022/10/16 10:40:22;;;;;;;;;;;12.30;99.90;;;;;;4956134;28;19934;-56
2022/10/16 10:42:49;;;;;;;;;;;12.40;99.90;;;;;;4987237;28;19931;-56
2022/10/16 10:45:19;;;;;;;;;;;12.50;99.90;;;;;;5071298;28;19959;-56
2022/10/16 10:48:05;;;;;;;;;;;12.60;99.90;;;;;;5052562;28;20375;-57
2022/10/16 10:50:35;;;;;;;;;;;12.80;99.90;;;;;;5087161;28;20296;-56
2022/10/16 10:53:06;;;;;;;;;;;12.80;99.90;;;;;;5037144;28;19926;-57
2022/10/16 10:55:39;;;;;;;;;;;13.00;99.90;;;;;;4969480;28;19934;-56
2022/10/16 10:58:25;;;;;;;;;;;13.20;99.90;;;;;;5053132;28;19928;-56
2022/10/16 11:00:57;;;;;;;;;;;13.30;99.90;;;;;;5070333;28;19925;-56
2022/10/16 11:03:35;;;;;;;;;;;13.50;99.90;;;;;;5047344;28;19935;-55
2022/10/16 11:06:08;;;;;;;;;;;13.60;99.90;;;;;;5013484;28;19956;-57
2022/10/16 11:08:39;;;;;;;;;;;13.70;99.90;;;;;;5016640;28;19924;-56
2022/10/16 11:11:10;;;;;;;;;;;13.90;99.90;;;;;;5071019;28;19932;-56
2022/10/16 11:13:42;;;;;;;;;;;14.00;99.90;;;;;;5071187;28;19936;-56
2022/10/16 11:16:13;;;;;;;;;;;14.10;99.90;;;;;;5070915;28;19925;-57
2022/10/16 11:19:00;;;;;;;;;;;14.30;99.90;;;;;;4998637;28;20389;-57
2022/10/16 11:21:29;;;;;;;;;;;14.40;99.90;;;;;;4950149;29;19927;-57
2022/10/16 11:24:00;;;;;;;;;;;14.50;99.90;;;;;;5042289;28;20398;-57
2022/10/16 11:26:30;;;;;;;;;;;14.60;99.90;;;;;;5071093;28;20351;-56
2022/10/16 11:29:00;;;;;;;;;;;14.60;99.90;;;;;;5052443;28;19948;-57
2022/10/16 11:31:37;;;;;;;;;;;14.60;99.90;;;;;;5070852;28;19943;-57
2022/10/16 11:34:16;;;;;;;;;;;14.70;99.90;;;;;;5058218;28;19924;-57
2022/10/16 11:37:02;;;;;;;;;;;14.60;99.90;;;;;;5070718;28;19928;-57
2022/10/16 11:39:30;;;;;;;;;;;14.40;99.90;;;;;;5069823;28;19931;-57
2022/10/16 11:42:00;;;;;;;;;;;14.20;99.90;;;;;;5070592;28;19928;-57
2022/10/16 11:44:47;;;;;;;;;;;14.00;99.90;;;;;;5070263;28;20295;-56
2022/10/16 11:47:31;;;;;;;;;;;13.80;99.90;;;;;;5070230;28;19932;-57
2022/10/16 11:50:29;;;;;;;;;;;13.60;99.90;;;;;;4949069;29;19927;-56
2022/10/16 11:53:09;;;;;;;;;;;13.50;99.90;;;;;;4989843;28;19934;-56
2022/10/16 11:55:38;;;;;;;;;;;13.40;99.90;;;;;;5070127;28;20322;-57
2022/10/16 11:58:21;;;;;;;;;;;13.40;99.90;;;;;;5069841;28;19925;-56
2022/10/16 12:00:54;;;;;;;;;;;13.30;99.90;;;;;;5070050;28;20327;-57
2022/10/16 12:03:39;;;;;;;;;;;13.30;99.90;;;;;;5047857;28;19930;-57
2022/10/16 12:06:14;;;;;;;;;;;13.40;99.90;;;;;;4948968;28;20412;-57
2022/10/16 12:08:42;;;;;;;;;;;13.50;99.90;;;;;;5019360;28;19932;-57
2022/10/16 12:11:33;;;;;;;;;;;13.60;99.90;;;;;;5069934;28;19933;-57
2022/10/16 12:14:19;;;;;;;;;;;13.70;99.90;;;;;;5041703;28;19931;-57
2022/10/16 12:16:50;;;;;;;;;;;13.80;99.90;;;;;;5068347;28;20280;-57
2022/10/16 12:19:19;;;;;;;;;;;13.80;99.90;;;;;;4989886;28;20005;-57
2022/10/16 12:21:47;;;;;;;;;;;13.80;99.90;;;;;;5014095;28;19931;-57
2022/10/16 12:24:33;;;;;;;;;;;13.70;99.90;;;;;;5053761;28;19932;-57
2022/10/16 12:27:01;;;;;;;;;;;13.70;99.90;;;;;;5085328;28;19932;-57
2022/10/16 12:29:32;;;;;;;;;;;13.80;99.90;;;;;;5068942;28;19931;-57
2022/10/16 12:31:59;;;;;;;;;;;13.80;99.90;;;;;;5069465;28;19924;-57
2022/10/16 12:34:34;;;;;;;;;;;13.90;99.90;;;;;;4987045;28;19930;-57
2022/10/16 12:37:20;;;;;;;;;;;14.00;99.90;;;;;;5014453;28;19926;-56
2022/10/16 12:39:48;;;;;;;;;;;14.10;99.90;;;;;;4948475;28;19934;-57
2022/10/16 12:42:21;;;;;;;;;;;14.30;99.90;;;;;;4953607;28;19926;-59
2022/10/16 12:44:49;;;;;;;;;;;14.50;99.90;;;;;;5084359;28;19933;-57
2022/10/16 12:47:35;;;;;;;;;;;14.60;99.90;;;;;;5051274;28;19932;-57
2022/10/16 12:50:02;;;;;;;;;;;14.70;99.90;;;;;;4948717;28;19926;-57
2022/10/16 12:52:38;;;;;;;;;;;14.70;99.90;;;;;;5017648;28;19932;-57
2022/10/16 12:55:15;;;;;;;;;;;14.70;99.90;;;;;;5003830;28;19937;-57
2022/10/16 12:58:12;;;;;;;;;;;14.60;99.90;;;;;;4981574;28;19928;-57
2022/10/16 13:00:50;;;;;;;;;;;14.40;99.90;;;;;;4978423;28;20342;-57
2022/10/16 13:03:33;;;;;;;;;;;14.20;99.90;;;;;;5035502;28;19932;-58
2022/10/16 13:06:22;;;;;;;;;;;14.10;99.90;;;;;;4948325;29;19948;-57
2022/10/16 13:08:56;;;;;;;;;;;13.90;99.90;;;;;;5023898;28;19931;-57
2022/10/16 13:11:23;;;;;;;;;;;13.80;99.90;;;;;;5068939;28;20441;-57
2022/10/16 13:14:06;;;;;;;;;;;13.80;99.90;;;;;;5068632;28;19925;-57
2022/10/16 13:16:52;;;;;;;;;;;13.70;99.90;;;;;;4966937;28;19926;-57
2022/10/16 13:19:32;;;;;;;;;;;13.70;99.90;;;;;;4988848;28;19991;-58
2022/10/16 13:22:13;;;;;;;;;;;13.70;99.90;;;;;;4948190;29;20304;-57
2022/10/16 13:24:59;;;;;;;;;;;13.80;99.90;;;;;;4947900;29;19934;-58
2022/10/16 13:27:35;;;;;;;;;;;13.90;99.90;;;;;;4956039;28;19934;-59
2022/10/16 13:30:20;;;;;;;;;;;14.30;99.90;;;;;;5084226;28;19925;-59
2022/10/16 13:33:00;;;;;;;;;;;14.90;99.90;;;;;;5067886;28;19924;-59
2022/10/16 13:35:29;;;;;;;;;;;15.90;99.90;;;;;;4954276;28;19931;-58
2022/10/16 13:38:05;;;;;;;;;;;16.60;99.90;;;;;;4978674;28;19925;-59
2022/10/16 13:40:34;;;;;;;;;;;17.30;99.90;;;;;;5068345;28;19925;-59
2022/10/16 13:43:02;;;;;;;;;;;17.40;97.60;;;;;;5050074;28;19924;-60
2022/10/16 13:45:29;;;;;;;;;;;17.30;97.30;;;;;;5067373;28;19932;-59
2022/10/16 13:48:04;;;;;;;;;;;17.00;97.30;;;;;;5083498;28;20528;-58
2022/10/16 13:50:32;;;;;;;;;;;16.40;97.60;;;;;;4956204;28;19926;-59
2022/10/16 13:53:25;;;;;;;;;;;16.20;97.90;;;;;;4986490;28;19931;-59
2022/10/16 13:55:52;;;;;;;;;;;15.90;98.30;;;;;;4989111;28;20408;-57
2022/10/16 13:58:20;;;;;;;;;;;15.50;98.60;;;;;;5012532;28;20288;-57
2022/10/16 14:00:58;;;;;;;;;;;15.30;99.10;;;;;;5072424;28;20327;-57
2022/10/16 14:03:26;;;;;;;;;;;15.00;99.70;;;;;;5084723;28;19929;-57
2022/10/16 14:06:05;;;;;;;;;;;14.80;99.90;;;;;;4970385;28;20386;-56
2022/10/16 14:08:33;;;;;;;;;;;14.70;99.70;;;;;;5053508;28;19924;-57
2022/10/16 14:11:01;;;;;;;;;;;14.60;99.30;;;;;;5054475;28;19924;-57
2022/10/16 14:13:28;;;;;;;;;;;14.60;99.70;;;;;;5071671;28;19924;-57
2022/10/16 14:15:58;;;;;;;;;;;14.60;99.90;;;;;;5071666;28;19932;-57
2022/10/16 14:18:27;;;;;;;;;;;14.60;99.30;;;;;;5071817;28;19931;-57
2022/10/16 14:21:12;;;;;;;;;;;14.60;99.90;;;;;;4950566;29;19937;-57
2022/10/16 14:23:40;;;;;;;;;;;14.60;99.70;;;;;;5022604;28;19935;-57
2022/10/16 14:26:08;;;;;;;;;;;14.50;99.90;;;;;;5072363;28;19925;-56
2022/10/16 14:28:36;;;;;;;;;;;14.40;99.90;;;;;;5071370;28;19932;-56
2022/10/16 14:31:23;;;;;;;;;;;14.40;99.90;;;;;;5085419;28;19931;-57
2022/10/16 14:33:50;;;;;;;;;;;14.30;99.80;;;;;;5053820;28;20314;-57
2022/10/16 14:36:19;;;;;;;;;;;14.20;99.90;;;;;;4948752;28;19927;-57
2022/10/16 14:38:52;;;;;;;;;;;14.20;99.90;;;;;;5021265;28;19940;-57
2022/10/16 14:41:21;;;;;;;;;;;14.20;99.90;;;;;;5071437;28;19924;-57
2022/10/16 14:43:51;;;;;;;;;;;14.10;99.90;;;;;;5032609;28;19934;-57
2022/10/16 14:46:21;;;;;;;;;;;14.10;99.90;;;;;;5029317;28;20082;-56